Main page
METAR-TAF:

METAR-TAF

Airports :

Orange-Caritat Air Base

Orange, France

latitude: 44-08N, longitude: 004-50E, elevation: 60 m

Current weather observation

The report was made 41 minutes ago, at 21:00 UTC
Calm wind
Temperature 17°C
Humidity 94%
Pressure 1015 hPa
Visibility: 4100 m
mist

METAR: LFMO 172100Z AUTO 00000KT 4100 BR NSC 17/16 Q1015 BECMG 7000 NSW

Time: 23:41 (21:41 UTC)

Forecast

The report was made 1 hour and 41 minutes ago, at 20:00 UTC
Forecast valid from 17 at 21 UTC to 18 at 21 UTC
Wind 2 kt from variable directions
Visibility: 7000 m
Temporary
from 18 at 00 UTC to 18 at 07 UTC
Visibility: 3000 m
mist

TAF: LFMO 172000Z 1721/1821 VRB02KT 7000 NSC TEMPO 1800/1807 3000 BR

Weather observations and forecasts of more than 4000 airports (METAR and TAF reports).

The available stations are represented by yellow and red dots on the map.

Hover mouse over dot to see the name of the station.

Then click to see weather observations and forecasts.

To change the map : click on the green buttons with a black cross to zoom in, on the green button with a dash to zoom out, or on the green arrows for adjacent maps.


METAR-TAF: